Flight Track Log - Related Links

Times and Time Zones

All times are in EDT time to prevent confusion due to time zone crossing. See the N1794X flight status page for this flight to view local times or setup timezone preferences in your user account.


Time Position Orientation Groundspeed Altitude Reporting Facility
EDT Latitude Longitude Course Direction KTS MPH feet Rate Location/Type
Sat 01:07:31 AM 24.5408 -81.6961 97° East 146 168 1,700  Level Miami Center
Sat 01:08:29 AM 24.5667 -81.6722 40° Northeast 106 122 2,500 814 Climbing Miami Center
Sat 01:09:29 AM 24.5881 -81.6500 43° Northeast 101 116 3,300 800 Climbing Miami Center
Sat 01:10:29 AM 24.6056 -81.6303 46° Northeast 95 109 4,100 780 Climbing Miami Center
Sat 01:11:32 AM 24.6083 -81.6053 83° East 84 97 4,900 744 Climbing Miami Center
Sat 01:12:00 AM 24.8069 -81.7835 97° East  Level Estimated
Sat 01:12:30 AM 24.6114 -81.5803 82° East 79 91 5,600  Level Miami Center
Sat 01:13:30 AM 24.6164 -81.5531 79° East 79 91 6,400 706 Climbing Miami Center
Sat 01:14:29 AM 24.6172 -81.5278 88° East 85 98 7,000 590 Climbing Miami Center
Sat 01:15:32 AM 24.6181 -81.5028 88° East 85 98 7,600 650 Climbing Miami Center
Sat 01:16:29 AM 24.6208 -81.4756 84° East 85 98 8,300 667 Climbing Miami Center
Sat 01:17:29 AM 24.6281 -81.4483 74° East 85 98 8,900 585 Climbing Miami Center
Sat 01:18:32 AM 24.6372 -81.4236 68° East 85 98 9,500 500 Climbing Miami Center
Sat 01:19:29 AM 24.6442 -81.3942 75° East 85 98 9,900 254 Climbing Miami Center
Sat 01:20:30 AM 24.6494 -81.3578 81° East 102 117 10,000 50 Climbing Miami Center
Sat 01:21:30 AM 24.6633 -81.3147 70° East 120 138 10,000  Level Miami Center
Sat 01:22:31 AM 24.6711 -81.2694 79° East 138 159 10,000  Level Miami Center
Sat 01:23:31 AM 24.6847 -81.2289 70° East 143 165 10,000  Level Miami Center
Sat 01:24:31 AM 24.6922 -81.1833 80° East 143 165 10,000  Level Miami Center
Sat 01:25:31 AM 24.7039 -81.1403 73° East 143 165 10,000  Level Miami Center
Sat 01:26:30 AM 24.7158 -81.0972 73° East 143 165 10,000  Level Miami Center
Sat 01:27:29 AM 24.7253 -81.0519 77° East 143 165 10,000  Level Miami Center
Sat 01:28:29 AM 24.7672 -81.0486 North 116 133 10,000  Level Miami Center
Sat 01:29:29 AM 24.8106 -81.0639 342° North 123 142 10,000  Level Miami Center
Sat 01:30:29 AM 24.8522 -81.0722 350° North 139 160 10,000 50 Level Miami Center
Sat 01:31:29 AM 24.8978 -81.0828 348° North 151 174 10,100 50 Climbing Miami Center
Sat 01:32:29 AM 24.9394 -81.0911 350° North 157 181 10,100  Level Miami Center
Sat 01:33:29 AM 24.9828 -81.1019 347° North 157 181 10,100  Level Miami Center
Sat 01:34:29 AM 25.0286 -81.1125 348° North 162 186 10,100  Level Miami Center
Sat 01:35:30 AM 25.0722 -81.1233 347° North 162 186 10,100  Level Miami Center
Sat 01:36:32 AM 25.1156 -81.1364 345° North 162 186 10,100  Level Miami Center
Sat 01:37:30 AM 25.1614 -81.1447 351° North 162 186 10,100  Level Miami Center
Sat 01:38:31 AM 25.1986 -81.1553 346° North 162 186 10,100  Level Miami Center
Sat 01:39:31 AM 25.2422 -81.1658 348° North 162 186 10,100 -50 Level Miami Center
Sat 01:40:32 AM 25.2856 -81.1767 347° North 162 186 10,000 -102 Descending Miami Center
Sat 01:41:29 AM 25.3311 -81.1897 345° North 162 186 9,900 -51 Descending Miami Center
Sat 01:42:29 AM 25.3747 -81.2028 345° North 162 186 9,900  Level Miami Center
Sat 01:43:29 AM 25.4203 -81.2136 348° North 162 186 9,900  Level Miami Center
Sat 01:44:31 AM 25.4639 -81.2197 353° North 162 186 9,900  Level Miami Center
Sat 01:45:29 AM 25.5078 -81.2261 353° North 162 186 9,900  Level Miami Center
Sat 01:46:29 AM 25.5511 -81.2367 348° North 162 186 9,900  Level Miami Center
Sat 01:47:30 AM 25.5947 -81.2475 347° North 162 186 9,900  Level Miami Center
Sat 01:48:32 AM 25.6403 -81.2583 348° North 162 186 9,900  Level Miami Center
Sat 01:49:31 AM 25.6839 -81.2692 347° North 162 186 9,900  Level Miami Center
Sat 01:50:29 AM 25.7275 -81.2800 347° North 162 186 9,900  Level Miami Center
Sat 01:51:30 AM 25.7689 -81.2908 347° North 162 186 9,900  Level Miami Center
Sat 01:52:31 AM 25.8144 -81.3039 346° North 162 186 9,900  Level Miami Center
Sat 01:53:31 AM 25.8581 -81.3125 350° North 162 186 9,900  Level Miami Center
Sat 01:54:29 AM 25.9017 -81.3233 347° North 162 186 9,900  Level Miami Center
Sat 01:55:31 AM 25.9450 -81.3342 347° North 162 186 9,900  Level Miami Center
Sat 01:56:30 AM 25.9928 -81.3453 348° North 162 186 9,900  Level Miami Center
Sat 01:57:29 AM 26.0364 -81.3561 347° North 162 186 9,900  Level Miami Center
Sat 01:58:30 AM 26.0778 -81.3647 349° North 162 186 9,900  Level Miami Center
Sat 01:59:32 AM 26.1211 -81.3778 345° North 162 186 9,900  Level Miami Center
Sat 02:00:29 AM 26.1669 -81.3867 350° North 162 186 9,900 -51 Level Miami Center
Sat 02:01:30 AM 26.2125 -81.3975 348° North 162 186 9,800 -50 Descending Miami Center
Sat 02:02:29 AM 26.2581 -81.4061 350° North 162 186 9,800  Level Miami Center
Sat 02:03:29 AM 26.3036 -81.4219 343° North 162 186 9,800  Level Miami Center
Sat 02:04:30 AM 26.3514 -81.4306 351° North 162 186 9,800  Level Miami Center
Sat 02:05:32 AM 26.3947 -81.4439 345° North 162 186 9,800  Level Miami Center
Sat 02:06:30 AM 26.4383 -81.4572 345° North 162 186 9,800  Level Miami Center
Sat 02:07:30 AM 26.4817 -81.4683 347° North 162 186 9,800  Level Miami Center
Sat 02:08:32 AM 26.5253 -81.4769 350° North 162 186 9,800 49 Level Miami Center
Sat 02:09:32 AM 26.5731 -81.4881 348° North 162 186 9,900 50 Climbing Miami Center
Sat 02:10:32 AM 26.6206 -81.5014 346° North 162 186 9,900  Level Miami Center
Sat 02:11:29 AM 26.6619 -81.5125 347° North 162 186 9,900  Level Miami Center
Sat 02:12:31 AM 26.7056 -81.5211 350° North 162 186 9,900  Level Miami Center
Sat 02:13:29 AM 26.7492 -81.5297 350° North 162 186 9,900  Level Miami Center
Sat 02:14:31 AM 26.7986 -81.5433 346° North 162 186 9,900  Level Miami Center
Sat 02:15:29 AM 26.8422 -81.5569 344° North 162 186 9,900  Level Miami Center
Sat 02:16:31 AM 26.8878 -81.5656 350° North 162 186 9,900  Level Miami Center
Sat 02:17:31 AM 26.9292 -81.5767 347° North 162 186 9,900  Level Miami Center
Sat 02:18:31 AM 26.9747 -81.5856 350° North 162 186 9,900  Level Miami Center
Sat 02:19:31 AM 27.0183 -81.5967 347° North 162 186 9,900 50 Level Miami Center
Sat 02:20:31 AM 27.0617 -81.6100 345° North 162 186 10,000 102 Climbing Miami Center
Sat 02:21:29 AM 27.1050 -81.6258 342° North 162 186 10,100 50 Climbing Miami Center
Sat 02:22:31 AM 27.1464 -81.6392 344° North 162 186 10,100 -50 Level Miami Center
Sat 02:23:29 AM 27.1917 -81.6550 343° North 162 186 10,000 -51 Descending Miami Center
Sat 02:24:29 AM 27.2331 -81.6683 344° North 162 186 10,000  Level Miami Center
Sat 02:25:29 AM 27.2744 -81.6817 344° North 162 186 10,000  Level Miami Center
Sat 02:27:29 AM 27.3567 -81.6525 17° North 162 186 10,000  Level Miami Center
Sat 02:28:29 AM 27.4103 -81.6711 343° North 155 178 10,000 50 Level Miami Center
Sat 02:29:29 AM 27.4542 -81.6731 358° North 155 178 10,100 50 Climbing Miami Center
Sat 02:30:30 AM 27.4975 -81.6842 347° North 155 178 10,100 49 Level Miami Center
Sat 02:31:31 AM 27.5411 -81.6953 347° North 161 185 10,200 -99 Climbing Miami Center
Sat 02:32:31 AM 27.5867 -81.7067 348° North 161 185 9,900 -198 Descending Miami Center
Sat 02:33:32 AM 27.6361 -81.7206 346° North 161 185 9,800 35 Descending Miami Center
Sat 02:35:21 AM 27.7167 -81.7333 352° North 164 189 10,000 71 Climbing Orlando TRACON
Sat 02:36:21 AM 27.7667 -81.7500 344° North 162 186 10,000  Level Orlando TRACON
Sat 02:37:21 AM 27.8167 -81.7667 344° North 159 183 10,000 -50 Level Orlando TRACON
Sat 02:38:21 AM 27.8500 -81.7833 336° Northwest 166 191 9,900 -50 Descending Orlando TRACON
Sat 02:39:21 AM 27.9000 -81.7833 360° North 165 190 9,900  Level Orlando TRACON
Sat 02:40:21 AM 27.9500 -81.8000 344° North 164 189 9,900 50 Level Orlando TRACON
Sat 02:41:22 AM 27.9833 -81.8000 360° North 161 185 10,000 50 Climbing Orlando TRACON
Sat 02:42:22 AM 28.0333 -81.8167 344° North 160 184 10,000  Level Orlando TRACON
Sat 02:43:22 AM 28.0667 -81.8333 336° Northwest 163 188 10,000  Level Orlando TRACON
Sat 02:44:22 AM 28.1167 -81.8667 330° Northwest 162 186 10,000  Level Orlando TRACON
Sat 02:45:22 AM 28.1500 -81.8833 336° Northwest 165 190 10,000  Level Orlando TRACON
Sat 02:46:22 AM 28.2000 -81.9000 344° North 165 190 10,000 53 Level Orlando TRACON
Sat 02:47:16 AM 28.2333 -81.9167 336° Northwest 162 186 10,100 53 Climbing Orlando TRACON
Sat 02:48:16 AM 28.2833 -81.9167 360° North 162 186 10,100 -53 Level Orlando TRACON
Sat 02:49:10 AM 28.3167 -81.9333 336° Northwest 166 191 10,000 -53 Descending Orlando TRACON
Sat 02:50:10 AM 28.3667 -81.9333 360° North 165 190 10,000  Level Orlando TRACON
Sat 02:51:10 AM 28.4167 -81.9333 360° North 163 188 10,000  Level Orlando TRACON
Sat 02:51:53 AM 28.4469 -81.9411 347° North 163 188 10,000  Level Jacksonville Center
Sat 02:52:29 AM 28.4742 -81.9433 356° North 161 185 10,000  Level Jacksonville Center
Sat 02:53:30 AM 28.5219 -81.9475 356° North 165 190 10,000  Level Jacksonville Center
Sat 02:54:31 AM 28.5658 -81.9542 352° North 164 189 10,000  Level Jacksonville Center
Sat 02:55:31 AM 28.6119 -81.9633 350° North 162 186 10,000 -50 Level Jacksonville Center
Sat 02:56:32 AM 28.6517 -81.9864 333° Northwest 165 190 9,900  Descending Jacksonville Center
Sat 02:57:32 AM 28.6917 -82.0097 333° Northwest 165 190 10,000 50 Climbing Jacksonville Center
Sat 02:58:33 AM 28.7397 -82.0258 344° North 163 188 10,000  Level Jacksonville Center
Sat 02:59:34 AM 28.7836 -82.0350 350° North 162 186 10,000 -50 Level Jacksonville Center
Sat 03:00:34 AM 28.8294 -82.0489 345° North 166 191 9,900 -149 Descending Jacksonville Center
Sat 03:01:35 AM 28.8714 -82.0700 336° Northwest 172 198 9,700 -198 Descending Jacksonville Center
Sat 03:02:35 AM 28.9133 -82.0886 339° North 170 196 9,500 -595 Descending Jacksonville Center
Sat 03:03:36 AM 28.9614 -82.1119 337° Northwest 180 207 8,500 -984 Descending Jacksonville Center
Sat 03:04:37 AM 29.0117 -82.1256 347° North 190 219 7,500 -992 Descending Jacksonville Center
Sat 03:05:37 AM 29.0658 -82.1347 352° North 188 216 6,500 -992 Descending Jacksonville Center
Sat 03:06:38 AM 29.1181 -82.1414 354° North 183 211 5,500 -893 Descending Jacksonville Center
Sat 03:07:38 AM 29.1661 -82.1411 360° North 178 205 4,700 -744 Descending Jacksonville Center
Sat 03:08:39 AM 29.2100 -82.1597 340° North 166 191 4,000 -1,082 Descending Jacksonville Center
Sat 03:09:40 AM 29.2314 -82.2050 298° West 162 186 2,500 -1,091 Descending Jacksonville Center
Sat 03:10:40 AM 29.2211 -82.2478 255° West 137 158 1,800 -496 Descending Jacksonville Center
Sat 03:11:41 AM 29.1919 -82.2575 196° South 100 115 1,500 -347 Descending Jacksonville Center
Sat 03:12:41 AM 29.1647 -82.2553 176° South 86 99 1,100 -446 Descending Jacksonville Center
Sat 03:13:42 AM 29.1522 -82.2386 131° Southeast 81 93 600 -344 Descending Jacksonville Center
Sat 03:14:43 AM 29.1542 -82.2197 83° East 73 84 400 -99 Descending Jacksonville Center
Sat 03:15:43 AM 29.1542 -82.2197 210° Southwest 73 84 400  Level Jacksonville Center
Sat 03:17:44 AM 29.1542 -82.2197 210° Southwest 73 84 400  Level Jacksonville Center

Login

Don't have an account? Register now (free) for customized features, flight alerts, and more!